Terminal Aerodrome Forecast
Issued by NWS Grand Forks, ND

Home | Current Version | Previous Version | Graphics & Text | Print | Product List | Glossary On
Versions: 1 2 3 4 5 6 7 8 9 10 11 12 13 14 15 16
000
FTUS43 KFGF 231727
TAFGFK
TAF
KGFK 231727Z 2318/2418 14011KT P6SM FEW050 SCT200
     FM232200 14012G18KT P6SM VCSH SCT050 BKN150
     FM240200 14009KT P6SM VCSH SCT045 BKN120
     FM241000 16010KT P6SM BKN200
     FM241500 18012KT P6SM SCT200=

USA.gov is the U.S. government's official web portal to all federal, state and local government web resources and services.